Time;durP1;ratioP1;P1;durP2;ratioP2;P2;SDS_P1;SDS_P2;PMS_P1;PMS_P2;Temp;Humidity;BMP_temperature;BMP_pressure;BME280_temperature;BME280_humidity;BME280_pressure;Samples;Min_cycle;Max_cycle;Signal;HPM_P1;HPM_P2
2023/10/26 01:25:58;;;;;;;56.20;26.92;;;;;;;9.48;100.00;99223.16;4982614;28;20036;-76
2023/10/26 01:28:26;;;;;;;62.25;26.52;;;;;;;9.42;100.00;99218.63;5027906;28;20034;-77
2023/10/26 01:30:52;;;;;;;56.83;27.00;;;;;;;9.47;100.00;99221.53;5028439;28;20041;-76
2023/10/26 01:33:18;;;;;;;57.47;26.65;;;;;;;9.45;100.00;99223.56;5047666;28;20033;-77
2023/10/26 01:35:45;;;;;;;54.97;27.15;;;;;;;9.49;100.00;99219.50;4981925;28;20498;-76
2023/10/26 01:38:12;;;;;;;48.45;26.13;;;;;;;9.47;100.00;99221.53;4958199;28;20493;-77
2023/10/26 01:40:37;;;;;;;;;;;;;;;9.51;100.00;99223.63;5015274;28;20032;-77
2023/10/26 01:43:03;;;;;;;45.40;23.42;;;;;;;9.45;100.00;99208.41;4990330;28;19921;-77
2023/10/26 01:45:28;;;;;;;48.97;25.60;;;;;;;9.47;100.00;99210.88;5031948;28;20131;-77
2023/10/26 01:47:54;;;;;;;54.03;25.83;;;;;;;9.51;100.00;99212.16;4991332;28;20164;-77
2023/10/26 01:50:20;;;;;;;50.25;24.88;;;;;;;9.51;100.00;99210.31;4990228;28;20065;-77
2023/10/26 01:52:45;;;;;;;58.35;25.95;;;;;;;9.51;100.00;99209.47;5032048;28;20024;-77
2023/10/26 01:55:11;;;;;;;43.45;23.50;;;;;;;9.50;100.00;99210.47;5031979;28;20034;-77
2023/10/26 01:57:36;;;;;;;52.30;25.30;;;;;;;9.49;100.00;99208.84;5031148;28;20543;-77
2023/10/26 02:00:03;;;;;;;44.33;25.67;;;;;;;9.50;100.00;99206.00;5027805;28;20053;-77
2023/10/26 02:02:37;;;;;;;45.65;22.17;;;;;;;9.50;100.00;99202.50;4976572;28;20047;-77
2023/10/26 02:05:03;;;;;;;48.07;22.80;;;;;;;9.52;100.00;99200.47;5027275;28;20616;-77
2023/10/26 02:07:28;;;;;;;47.28;23.33;;;;;;;9.53;100.00;99204.78;5007249;28;20263;-76
2023/10/26 02:09:54;;;;;;;44.33;23.17;;;;;;;9.47;100.00;99194.91;5047919;28;20045;-77
2023/10/26 02:12:20;;;;;;;41.10;19.73;;;;;;;9.48;100.00;99200.03;4962091;28;20035;-77
2023/10/26 02:14:46;;;;;;;38.30;18.77;;;;;;;9.54;100.00;99194.94;5031701;28;20029;-77
2023/10/26 02:17:12;;;;;;;42.60;21.43;;;;;;;9.52;100.00;99193.28;5031280;28;20040;-77
2023/10/26 02:19:37;;;;;;;41.45;20.52;;;;;;;9.53;100.00;99199.47;4955819;28;20041;-77
2023/10/26 02:22:03;;;;;;;39.85;20.77;;;;;;;9.48;100.00;99199.19;5031549;28;20087;-77
2023/10/26 02:24:28;;;;;;;41.80;20.50;;;;;;;9.48;100.00;99189.38;5007304;28;20485;-77
2023/10/26 02:26:54;;;;;;;33.95;19.27;;;;;;;9.51;100.00;99196.16;5030803;28;20172;-76
2023/10/26 02:29:20;;;;;;;;;;;;;;;9.57;100.00;99200.69;4976515;23;20051;-86
2023/10/26 02:31:45;;;;;;;36.20;17.98;;;;;;;9.56;100.00;99196.41;4928986;29;20050;-87
2023/10/26 02:34:11;;;;;;;36.70;18.37;;;;;;;9.57;100.00;99195.38;4950510;28;20035;-86
2023/10/26 02:36:36;;;;;;;31.07;18.33;;;;;;;9.57;100.00;99195.38;4943210;28;20027;-86
2023/10/26 02:39:02;;;;;;;26.10;14.73;;;;;;;9.56;100.00;99190.25;4937472;29;20035;-86
2023/10/26 02:41:28;;;;;;;26.37;15.80;;;;;;;9.56;100.00;99185.75;4951329;28;20035;-87
2023/10/26 02:43:53;;;;;;;27.73;15.43;;;;;;;9.50;100.00;99181.19;4937901;29;20035;-85
2023/10/26 02:46:18;;;;;;;27.88;16.13;;;;;;;9.50;100.00;99181.19;4941232;28;20058;-87
2023/10/26 02:48:44;;;;;;;34.73;15.67;;;;;;;9.56;100.00;99191.06;4934188;29;20721;-86
2023/10/26 02:51:09;;;;;;;30.93;14.10;;;;;;;9.62;100.00;99192.97;4950920;28;20054;-86
2023/10/26 02:53:35;;;;;;;29.20;15.00;;;;;;;9.63;100.00;99194.59;4949895;28;20046;-86
2023/10/26 02:56:00;;;;;;;28.90;15.30;;;;;;;9.68;100.00;99186.84;4939234;29;20135;-86
2023/10/26 02:58:25;;;;;;;28.70;15.30;;;;;;;9.67;100.00;99187.88;4954661;28;20035;-86
2023/10/26 03:00:54;;;;;;;30.57;15.80;;;;;;;9.69;100.00;99182.34;4955253;28;20039;-87
2023/10/26 03:03:20;;;;;;;29.83;15.80;;;;;;;9.68;100.00;99194.84;4938886;29;20035;-86
2023/10/26 03:05:45;;;;;;;24.48;13.20;;;;;;;9.78;100.00;99196.34;4952604;28;20031;-87
2023/10/26 03:08:11;;;;;;;28.63;13.93;;;;;;;9.79;100.00;99203.34;4934109;29;20047;-87
2023/10/26 03:10:37;;;;;;;24.00;13.10;;;;;;;9.79;100.00;99203.34;4939842;28;20039;-86
2023/10/26 03:13:04;;;;;;;25.13;12.88;;;;;;;9.78;100.00;99188.34;4943079;28;20047;-86
2023/10/26 03:15:30;;;;;;;20.25;11.75;;;;;;;9.83;100.00;99194.75;4953607;28;20031;-86
2023/10/26 03:17:55;;;;;;;24.58;13.10;;;;;;;9.88;100.00;99186.13;4932767;29;20042;-86
2023/10/26 03:20:21;;;;;;;26.30;13.67;;;;;;;9.90;100.00;99184.94;4952553;28;20387;-86
2023/10/26 03:23:05;;;;;;;22.85;12.55;;;;;;;9.96;100.00;99187.84;4954265;28;20046;-87
2023/10/26 03:25:49;;;;;;;24.67;12.70;;;;;;;9.99;100.00;99192.78;4962921;28;20096;-87
2023/10/26 03:28:33;;;;;;;22.30;11.48;;;;;;;9.99;100.00;99182.94;4958031;28;20506;-87
2023/10/26 03:30:58;;;;;;;21.23;11.73;;;;;;;10.01;100.00;99185.41;4963410;28;20051;-87
2023/10/26 03:33:24;;;;;;;19.73;11.35;;;;;;;10.03;100.00;99178.84;4964707;28;20275;-87
2023/10/26 03:35:51;;;;;;;20.25;11.98;;;;;;;10.04;100.00;99180.50;4952099;28;20043;-86
2023/10/26 03:38:16;;;;;;;23.50;11.93;;;;;;;10.01;100.00;99185.41;4979038;28;20308;-86
2023/10/26 03:40:41;;;;;;;22.70;12.97;;;;;;;10.07;100.00;99188.13;4945532;28;20031;-87
2023/10/26 03:43:07;;;;;;;19.92;10.45;;;;;;;10.08;100.00;99184.41;4929696;29;20384;-87
2023/10/26 03:45:32;;;;;;;18.27;10.77;;;;;;;10.08;100.00;99184.41;4957865;28;20043;-86
2023/10/26 03:47:59;;;;;;;15.15;10.18;;;;;;;10.14;100.00;99188.16;4962765;28;20031;-86
2023/10/26 03:50:24;;;;;;;16.40;10.38;;;;;;;10.16;100.00;99183.44;4943567;28;20038;-86
2023/10/26 03:52:50;;;;;;;19.37;10.07;;;;;;;10.09;100.00;99178.09;4932258;29;20085;-86
2023/10/26 03:55:16;;;;;;;;;;;;;;;10.21;100.00;99180.16;4947266;28;20118;-86
2023/10/26 03:57:41;;;;;;;15.43;8.85;;;;;;;10.18;100.00;99175.22;4957176;28;20322;-85
2023/10/26 04:00:09;;;;;;;17.17;9.20;;;;;;;10.22;100.00;99181.81;4950041;28;20031;-86
2023/10/26 04:02:37;;;;;;;13.15;8.45;;;;;;;10.24;100.00;99174.44;4926253;29;20130;-85
2023/10/26 04:05:04;;;;;;;16.30;8.03;;;;;;;10.13;100.00;99167.81;4944499;29;20058;-85
2023/10/26 04:07:29;;;;;;;13.95;7.72;;;;;;;10.18;100.00;99175.22;4933392;28;20070;-86
2023/10/26 04:09:55;;;;;;;13.03;7.37;;;;;;;10.24;100.00;99177.13;4965602;28;20085;-86
2023/10/26 04:12:20;;;;;;;9.93;7.07;;;;;;;10.23;100.00;99184.31;4946563;28;20294;-85
2023/10/26 04:14:45;;;;;;;12.87;6.97;;;;;;;10.26;100.00;99180.41;4933661;29;20105;-86
2023/10/26 04:17:12;;;;;;;12.90;6.07;;;;;;;10.28;100.00;99186.38;4933631;28;20023;-86
2023/10/26 04:19:38;;;;;;;11.45;5.05;;;;;;;10.27;100.00;99187.38;4930914;29;20586;-85
2023/10/26 04:22:05;;;;;;;10.38;5.70;;;;;;;10.30;100.00;99184.34;4941201;29;20027;-86
2023/10/26 04:24:31;;;;;;;9.63;5.40;;;;;;;10.33;100.00;99183.97;4946094;28;20047;-85
2023/10/26 04:26:56;;;;;;;5.45;3.75;;;;;;;10.33;100.00;99178.63;4954114;28;20480;-85
2023/10/26 04:31:49;;;;;;;12.63;5.65;;;;;;;10.37;100.00;99179.84;4942999;29;20093;-81
2023/10/26 04:34:15;;;;;;;7.85;4.95;;;;;;;10.39;100.00;99177.81;4951178;29;20039;-79
2023/10/26 04:36:40;;;;;;;11.97;4.53;;;;;;;10.41;100.00;99181.09;4950124;28;20043;-78
2023/10/26 04:39:08;;;;;;;10.90;5.73;;;;;;;10.33;100.00;99171.44;4950744;28;20065;-79
2023/10/26 04:41:33;;;;;;;7.60;4.43;;;;;;;10.38;100.00;99173.50;4934828;28;20076;-79
2023/10/26 04:43:59;;;;;;;11.60;4.70;;;;;;;10.43;100.00;99178.25;4962339;23;20072;-77
2023/10/26 04:46:24;;;;;;;8.70;5.03;;;;;;;10.43;100.00;99179.06;4908916;28;20481;-77
2023/10/26 04:48:50;;;;;;;8.77;5.10;;;;;;;10.30;100.00;99181.66;4934711;28;20288;-77
2023/10/26 04:51:15;;;;;;;9.13;4.90;;;;;;;10.34;100.00;99189.06;4959900;28;20055;-77
2023/10/26 04:53:41;;;;;;;7.87;5.03;;;;;;;10.30;100.00;99179.00;4936633;28;20295;-77
2023/10/26 04:56:06;;;;;;;9.97;5.03;;;;;;;10.36;100.00;99170.22;5025403;28;20161;-78
2023/10/26 04:58:32;;;;;;;11.63;4.97;;;;;;;10.36;100.00;99170.22;5010072;28;20479;-77
2023/10/26 05:00:59;;;;;;;10.18;5.38;;;;;;;10.42;100.00;99169.44;5009006;28;20057;-76
2023/10/26 05:03:24;;;;;;;12.07;5.60;;;;;;;10.42;100.00;99172.09;5008559;28;20523;-77
2023/10/26 05:05:49;;;;;;;7.40;4.33;;;;;;;10.43;100.00;99165.72;4980415;28;20149;-77
2023/10/26 05:08:15;;;;;;;12.10;5.10;;;;;;;10.44;100.00;99167.38;4957481;28;20524;-77
2023/10/26 05:10:41;;;;;;;7.97;4.97;;;;;;;10.46;100.00;99170.66;5011410;28;20034;-77
2023/10/26 05:13:08;;;;;;;;;;;;;;;10.40;100.00;99168.00;5013325;28;20644;-77
2023/10/26 05:15:33;;;;;;;9.98;5.35;;;;;;;10.39;100.00;99156.47;5029247;28;19916;-77
2023/10/26 05:17:59;;;;;;;8.68;5.05;;;;;;;10.40;100.00;99163.47;5012636;28;20041;-77
2023/10/26 05:20:24;;;;;;;8.97;5.73;;;;;;;10.43;100.00;99160.38;5010164;28;20084;-77
2023/10/26 05:22:50;;;;;;;7.87;4.70;;;;;;;10.32;100.00;99158.28;4990585;28;20072;-77
2023/10/26 05:25:15;;;;;;;9.18;4.63;;;;;;;10.38;100.00;99160.16;5028990;28;20513;-77
2023/10/26 05:27:42;;;;;;;10.07;5.33;;;;;;;10.40;100.00;99163.47;5012166;28;20045;-77
2023/10/26 05:30:09;;;;;;;9.15;5.75;;;;;;;10.35;100.00;99164.06;4996395;28;20296;-77
2023/10/26 05:32:34;;;;;;;8.00;4.90;;;;;;;10.33;100.00;99158.09;5012480;28;20065;-77
2023/10/26 05:35:01;;;;;;;8.38;4.60;;;;;;;10.39;100.00;99163.66;4996387;28;20277;-77
2023/10/26 05:37:27;;;;;;;8.80;4.90;;;;;;;10.44;100.00;99159.38;5028507;28;20033;-77
2023/10/26 05:39:52;;;;;;;8.35;4.60;;;;;;;10.31;100.00;99151.31;5012489;28;20034;-77
2023/10/26 05:42:17;;;;;;;8.60;4.03;;;;;;;10.14;100.00;99143.63;5011810;28;20038;-77
2023/10/26 05:44:43;;;;;;;7.10;4.03;;;;;;;10.30;100.00;99149.66;4971198;28;20044;-77
2023/10/26 05:47:08;;;;;;;5.23;3.80;;;;;;;10.36;100.00;99154.22;4992310;28;20064;-77
2023/10/26 05:49:34;;;;;;;9.93;3.60;;;;;;;10.25;100.00;99147.56;5013410;28;20045;-76
2023/10/26 05:52:01;;;;;;;6.13;4.10;;;;;;;10.24;100.00;99156.59;5013380;28;20076;-77
2023/10/26 05:54:26;;;;;;;8.57;4.15;;;;;;;10.16;100.00;99162.13;4967786;28;20066;-77
2023/10/26 05:56:51;;;;;;;5.37;4.00;;;;;;;10.20;100.00;99174.00;4958409;28;20410;-77
2023/10/26 05:59:17;;;;;;;7.23;3.43;;;;;;;9.84;100.00;99153.75;4932093;28;20036;-77
2023/10/26 06:01:42;;;;;;;9.23;4.60;;;;;;;9.88;100.00;99156.81;5026169;28;20457;-77
2023/10/26 06:04:07;;;;;;;8.73;4.70;;;;;;;9.95;100.00;99165.69;5028668;28;20190;-77
2023/10/26 06:06:33;;;;;;;9.02;4.13;;;;;;;10.04;100.00;99166.34;5012956;28;20073;-77
2023/10/26 06:08:59;;;;;;;6.13;4.40;;;;;;;10.11;100.00;99175.19;4939105;28;20036;-77
2023/10/26 06:11:25;;;;;;;6.10;3.88;;;;;;;10.12;100.00;99166.19;4946450;28;20140;-76
2023/10/26 06:13:51;;;;;;;6.82;3.45;;;;;;;10.21;100.00;99166.81;4915127;28;20119;-77
2023/10/26 06:16:17;;;;;;;;;;;;;;;10.21;100.00;99166.81;4993622;28;20048;-77
2023/10/26 06:18:42;;;;;;;9.45;3.28;;;;;;;10.17;100.00;99160.25;4970873;28;19918;-77
2023/10/26 06:21:08;;;;;;;8.18;2.75;;;;;;;10.15;100.00;99160.44;5028151;28;20087;-76
2023/10/26 06:23:35;;;;;;;5.20;3.65;;;;;;;10.15;100.00;99158.59;5011667;28;20034;-77
2023/10/26 06:26:01;;;;;;;;;;;;;;;10.15;100.00;99155.94;4962481;28;20413;-77
2023/10/26 06:28:27;;;;;;;5.47;2.83;;;;;;;10.15;100.00;99153.28;5012452;28;20289;-77
2023/10/26 06:30:53;;;;;;;3.67;3.00;;;;;;;10.21;100.00;99151.66;4977300;28;20030;-77
2023/10/26 06:33:19;;;;;;;3.40;2.17;;;;;;;10.06;100.00;99130.47;4998752;28;20093;-77
2023/10/26 06:35:45;;;;;;;3.95;2.25;;;;;;;10.17;100.00;99138.94;4987925;28;20021;-76
2023/10/26 06:38:10;;;;;;;7.50;2.40;;;;;;;9.97;100.00;99123.66;4953525;28;20104;-77
2023/10/26 06:40:35;;;;;;;5.33;1.90;;;;;;;10.17;100.00;99131.75;4942552;28;20087;-77
2023/10/26 06:43:01;;;;;;;3.53;1.73;;;;;;;10.21;100.00;99132.16;4953247;28;20033;-76
2023/10/26 06:45:26;;;;;;;5.10;1.80;;;;;;;10.19;100.00;99128.88;4938696;28;20066;-77
2023/10/26 06:47:51;;;;;;;3.40;1.73;;;;;;;10.17;100.00;99115.75;5012368;28;20518;-77
2023/10/26 06:50:17;;;;;;;3.37;1.37;;;;;;;10.24;100.00;99105.91;4942781;28;20043;-77
2023/10/26 06:52:42;;;;;;;5.90;1.40;;;;;;;10.35;100.00;99102.72;4919997;28;20554;-77
2023/10/26 06:55:14;;;;;;;2.50;1.38;;;;;;;10.46;100.00;99097.81;4929686;28;20040;-77
2023/10/26 06:57:39;;;;;;;3.03;1.45;;;;;;;10.28;100.00;99088.53;4931226;28;20134;-77
2023/10/26 07:00:06;;;;;;;4.50;1.73;;;;;;;10.37;100.00;99089.16;5011139;28;20239;-76
2023/10/26 07:02:32;;;;;;;5.55;1.58;;;;;;;10.29;100.00;99086.69;4994564;28;20033;-76
2023/10/26 07:04:57;;;;;;;3.30;1.40;;;;;;;10.32;100.00;99076.44;5027366;28;20087;-77
2023/10/26 07:07:22;;;;;;;3.30;1.33;;;;;;;10.42;100.00;99092.06;5027315;28;20044;-77
2023/10/26 07:09:48;;;;;;;2.13;1.10;;;;;;;10.35;100.00;99068.03;5011964;28;20172;-77
2023/10/26 07:12:13;;;;;;;1.20;1.10;;;;;;;10.30;100.00;99048.31;4994022;28;20277;-76
2023/10/26 07:14:40;;;;;;;3.37;1.00;;;;;;;10.25;100.00;99064.06;5025714;28;20042;-77
2023/10/26 07:17:05;;;;;;;3.72;1.17;;;;;;;10.43;100.00;99068.88;4997137;28;20508;-77
2023/10/26 07:19:31;;;;;;;2.63;1.20;;;;;;;10.39;100.00;99059.63;5027173;28;20117;-77
2023/10/26 07:21:56;;;;;;;2.80;1.50;;;;;;;10.38;100.00;99071.31;4940520;28;20047;-77
2023/10/26 07:24:22;;;;;;;2.53;1.60;;;;;;;10.34;100.00;99070.88;5007918;28;20034;-77
2023/10/26 07:26:49;;;;;;;2.83;0.93;;;;;;;10.45;100.00;99070.31;5011409;28;20030;-77
2023/10/26 07:29:15;;;;;;;5.82;1.15;;;;;;;10.46;100.00;99074.59;4970564;28;20042;-77
2023/10/26 07:31:40;;;;;;;3.87;1.30;;;;;;;10.31;100.00;99057.97;5026665;28;20550;-76
2023/10/26 07:34:05;;;;;;;1.20;1.00;;;;;;;10.47;100.00;99081.59;5010478;28;20091;-77
2023/10/26 07:36:31;;;;;;;2.27;1.17;;;;;;;10.49;100.00;99068.06;4925598;28;21026;-77
2023/10/26 07:38:58;;;;;;;3.92;1.25;;;;;;;10.49;100.00;99076.06;5026686;28;20486;-77
2023/10/26 07:41:28;;;;;;;5.07;1.40;;;;;;;10.51;100.00;99076.66;4925095;28;20591;-77
2023/10/26 07:43:54;;;;;;;3.38;1.42;;;;;;;10.47;100.00;99078.13;4926844;28;20440;-77
2023/10/26 07:46:20;;;;;;;2.22;0.90;;;;;;;10.55;100.00;99091.25;5005555;28;20092;-77
2023/10/26 07:48:47;;;;;;;1.73;0.93;;;;;;;10.44;100.00;99089.16;4976682;28;20046;-77
2023/10/26 07:51:13;;;;;;;3.35;1.38;;;;;;;10.52;100.00;99097.81;4951935;28;20734;-77
2023/10/26 07:53:38;;;;;;;2.80;0.97;;;;;;;10.57;100.00;99108.69;4986158;28;20092;-77
2023/10/26 07:56:04;;;;;;;3.47;1.40;;;;;;;10.56;100.00;99099.06;4972848;28;20036;-76
2023/10/26 07:58:30;;;;;;;2.80;0.98;;;;;;;10.52;100.00;99095.16;4992745;28;20026;-77
2023/10/26 08:00:56;;;;;;;1.05;0.70;;;;;;;10.51;100.00;99092.66;4939399;28;20056;-77
2023/10/26 08:03:24;;;;;;;3.00;1.10;;;;;;;10.57;100.00;99105.22;4926707;28;20505;-77
2023/10/26 08:06:00;;;;;;;5.28;1.27;;;;;;;10.53;100.00;99099.44;5025325;28;20087;-77
2023/10/26 08:08:29;;;;;;;3.67;0.98;;;;;;;10.63;100.00;99099.09;4964459;28;20500;-77
2023/10/26 08:11:12;;;;;;;2.95;0.98;;;;;;;10.70;100.00;99113.25;4919440;28;20065;-77
2023/10/26 08:13:38;;;;;;;4.32;1.10;;;;;;;10.77;100.00;99110.59;4967087;28;20040;-77
2023/10/26 08:16:04;;;;;;;3.83;1.17;;;;;;;10.76;100.00;99103.59;4956961;28;20047;-77
2023/10/26 08:18:29;;;;;;;2.70;1.55;;;;;;;10.78;100.00;99106.88;4936110;28;20425;-77
2023/10/26 08:20:55;;;;;;;2.97;1.50;;;;;;;10.77;100.00;99115.94;4970966;28;20042;-75
2023/10/26 08:23:20;;;;;;;3.80;1.93;;;;;;;10.75;100.00;99112.66;4935261;28;20040;-77
2023/10/26 08:25:47;;;;;;;4.13;1.67;;;;;;;10.68;100.00;99117.97;4938815;28;20052;-76
2023/10/26 08:28:12;;;;;;;4.18;1.67;;;;;;;10.85;100.00;99139.75;5000256;28;20035;-77
2023/10/26 08:30:38;;;;;;;5.25;2.20;;;;;;;10.80;100.00;99142.22;5003246;28;20032;-77
2023/10/26 08:33:06;;;;;;;5.83;2.00;;;;;;;10.87;100.00;99152.91;5009575;28;20065;-77
2023/10/26 08:35:31;;;;;;;3.80;1.73;;;;;;;10.86;100.00;99162.75;5025908;28;20065;-77
2023/10/26 08:37:57;;;;;;;9.70;2.20;;;;;;;10.87;100.00;99163.59;5010368;28;20073;-77
2023/10/26 08:40:22;;;;;;;4.27;1.53;;;;;;;10.82;100.00;99158.03;5010273;28;20029;-78
2023/10/26 08:42:48;;;;;;;8.82;1.77;;;;;;;10.95;100.00;99172.22;5009652;28;20484;-76
2023/10/26 08:45:33;;;;;;;5.03;1.67;;;;;;;10.88;100.00;99163.38;4931843;28;20040;-76
2023/10/26 08:47:59;;;;;;;5.70;1.90;;;;;;;10.93;100.00;99158.25;4974837;28;20038;-76
2023/10/26 08:50:24;;;;;;;2.90;1.15;;;;;;;10.88;100.00;99154.53;4991564;28;20059;-76
2023/10/26 08:52:51;;;;;;;3.47;1.20;;;;;;;10.82;100.00;99158.84;4942400;28;20030;-76
2023/10/26 08:55:17;;;;;;;3.45;1.98;;;;;;;10.63;100.00;99156.94;4910965;29;20363;-76
2023/10/26 08:58:00;;;;;;;5.95;2.08;;;;;;;10.64;100.00;99163.94;4914257;28;20186;-76
2023/10/26 09:00:29;;;;;;;4.65;1.55;;;;;;;10.74;100.00;99183.88;4964188;28;20135;-76
2023/10/26 09:02:54;;;;;;;9.50;1.35;;;;;;;10.59;100.00;99190.41;4970710;28;20040;-76
2023/10/26 09:05:20;;;;;;;4.70;1.70;;;;;;;10.69;100.00;99209.53;4944525;28;20450;-75
2023/10/26 09:07:45;;;;;;;3.77;1.40;;;;;;;10.75;100.00;99214.09;5006247;28;20038;-76
2023/10/26 09:10:11;;;;;;;2.27;1.13;;;;;;;10.73;100.00;99221.47;5010168;28;20042;-77
2023/10/26 09:12:36;;;;;;;4.60;1.60;;;;;;;10.62;100.00;99216.69;4979171;28;20037;-77
2023/10/26 09:15:06;;;;;;;1.87;1.10;;;;;;;10.61;100.00;99217.72;4991172;28;20026;-76
2023/10/26 09:17:33;;;;;;;4.15;1.70;;;;;;;10.51;100.00;99236.75;5025720;28;20113;-77
2023/10/26 09:20:13;;;;;;;3.25;1.02;;;;;;;10.30;100.00;99245.69;4993483;28;20033;-76
2023/10/26 09:22:40;;;;;;;5.75;1.25;;;;;;;10.52;100.00;99276.59;5010978;28;20092;-75
2023/10/26 09:25:06;;;;;;;2.35;1.17;;;;;;;10.29;100.00;99268.06;5026206;28;20037;-76
2023/10/26 09:27:32;;;;;;;1.67;0.98;;;;;;;10.60;100.00;99288.13;5025929;28;20026;-76
2023/10/26 09:29:58;;;;;;;1.25;0.60;;;;;;;10.35;100.00;99289.44;5026193;28;20121;-76
2023/10/26 09:32:34;;;;;;;1.67;0.90;;;;;;;10.47;100.00;99297.72;4926914;28;20564;-76
2023/10/26 09:35:00;;;;;;;0.50;0.50;;;;;;;10.32;100.00;99289.84;4926454;28;20067;-77
2023/10/26 09:37:26;;;;;;;2.72;0.70;;;;;;;10.52;100.00;99294.47;4926201;28;20032;-77
2023/10/26 09:39:52;;;;;;;2.95;0.90;;;;;;;10.47;100.00;99292.38;5009689;28;20034;-77
2023/10/26 09:42:19;;;;;;;1.55;0.90;;;;;;;10.30;100.00;99288.38;5009838;28;20037;-76
2023/10/26 09:44:44;;;;;;;0.77;0.60;;;;;;;10.18;100.00;99268.56;4925919;28;20036;-77
2023/10/26 09:47:10;;;;;;;1.77;0.70;;;;;;;10.27;100.00;99270.88;4993062;28;20037;-76
2023/10/26 09:49:36;;;;;;;2.47;0.63;;;;;;;10.35;100.00;99278.78;5009434;28;20038;-76
2023/10/26 09:52:01;;;;;;;2.33;0.68;;;;;;;10.39;100.00;99268.53;5008929;28;20074;-75
2023/10/26 09:54:34;;;;;;;0.77;0.40;;;;;;;10.42;100.00;99261.97;4925118;29;20060;-76
2023/10/26 09:57:07;;;;;;;1.45;0.60;;;;;;;10.65;100.00;99273.19;4950096;28;20045;-76
2023/10/26 09:59:33;;;;;;;0.75;0.40;;;;;;;10.89;100.00;99282.50;5010480;28;20034;-77
2023/10/26 10:02:11;;;;;;;1.67;0.70;;;;;;;10.89;100.00;99276.34;4954743;28;20020;-76
2023/10/26 10:04:37;;;;;;;1.52;0.70;;;;;;;10.73;100.00;99248.16;5000834;28;20072;-77
2023/10/26 10:07:03;;;;;;;2.55;0.65;;;;;;;10.80;100.00;99258.88;4933839;28;20032;-76
2023/10/26 10:09:30;;;;;;;2.13;1.25;;;;;;;10.93;100.00;99259.72;4913463;28;20036;-77
2023/10/26 10:12:16;;;;;;;;;;;;;;;10.99;100.00;99258.09;4988928;28;20387;-77
2023/10/26 10:14:48;;;;;;;2.42;0.68;;;;;;;11.14;100.00;99260.59;5012678;28;19921;-76
2023/10/26 10:17:22;;;;;;;2.33;0.73;;;;;;;11.08;100.00;99251.53;4949985;28;20038;-76
2023/10/26 10:20:19;;;;;;;4.50;0.98;;;;;;;11.13;100.00;99246.41;5016436;28;20088;-76
2023/10/26 10:22:45;;;;;;;2.80;0.70;;;;;;;11.20;100.00;99246.44;4928048;28;20036;-76
2023/10/26 10:25:12;;;;;;;1.88;0.90;;;;;;;10.74;100.00;99223.91;4922416;28;20032;-77
2023/10/26 10:27:37;;;;;;;;;;;;;;;10.97;100.00;99250.28;4943062;28;20112;-76
2023/10/26 10:30:09;;;;;;;1.30;0.60;;;;;;;11.22;100.00;99256.91;5006316;28;20140;-76
2023/10/26 10:32:43;;;;;;;2.60;0.50;;;;;;;11.18;100.00;99245.81;4953743;28;20048;-77
2023/10/26 10:35:11;;;;;;;2.85;0.63;;;;;;;11.45;100.00;99261.84;4967435;28;20030;-77
2023/10/26 10:37:37;;;;;;;3.13;0.65;;;;;;;11.48;100.00;99245.44;4926995;28;20020;-80
2023/10/26 10:40:12;;;;;;;1.00;0.40;;;;;;;11.63;100.00;99248.72;5012239;28;20041;-76
2023/10/26 10:42:39;;;;;;;0.88;0.40;;;;;;;11.57;100.00;99217.47;5013126;28;20482;-76
2023/10/26 10:45:11;;;;;;;2.70;0.40;;;;;;;11.32;100.00;99194.03;4988602;28;20540;-77
2023/10/26 10:47:40;;;;;;;1.15;0.50;;;;;;;11.13;100.00;99173.47;4986153;28;20090;-76
2023/10/26 10:50:19;;;;;;;0.90;0.30;;;;;;;11.07;100.00;99163.59;4954261;28;20406;-77
2023/10/26 10:52:48;;;;;;;1.20;0.35;;;;;;;11.44;100.00;99177.38;4978956;28;20416;-78
2023/10/26 10:55:22;;;;;;;4.95;0.45;;;;;;;11.14;100.00;99143.06;4971720;28;20045;-77
2023/10/26 10:57:52;;;;;;;1.23;0.35;;;;;;;11.50;100.00;99173.91;4913063;28;20072;-77
2023/10/26 11:00:18;;;;;;;0.60;0.30;;;;;;;11.61;100.00;99175.91;4931082;28;20477;-77
2023/10/26 11:02:52;;;;;;;0.80;0.40;;;;;;;11.79;100.00;99181.44;4966529;28;20105;-77
2023/10/26 11:05:18;;;;;;;2.38;0.40;;;;;;;11.77;100.00;99155.94;4965297;28;20058;-77
2023/10/26 11:07:43;;;;;;;0.28;0.20;;;;;;;11.36;100.00;99114.28;4970833;28;20032;-77
2023/10/26 11:10:09;;;;;;;1.33;0.30;;;;;;;11.37;100.00;99127.44;5003638;28;20037;-77
2023/10/26 11:12:34;;;;;;;1.98;0.40;;;;;;;11.43;100.00;99146.34;4973065;28;20038;-77
2023/10/26 11:15:00;;;;;;;3.73;0.47;;;;;;;11.24;100.00;99135.47;4994549;28;20111;-77
2023/10/26 11:17:29;;;;;;;1.27;0.30;;;;;;;11.14;100.00;99148.41;4981919;28;20501;-77
2023/10/26 11:19:55;;;;;;;5.90;0.73;;;;;;;10.96;100.00;99136.47;5025456;28;20073;-77
2023/10/26 11:22:22;;;;;;;1.13;0.30;;;;;;;10.97;100.00;99167.50;5010740;28;20033;-76
2023/10/26 11:24:48;;;;;;;0.45;0.38;;;;;;;10.90;100.00;99180.00;5011859;28;20030;-77
2023/10/26 11:27:16;;;;;;;0.40;0.10;;;;;;;11.29;100.00;99205.13;5011727;28;20070;-76
2023/10/26 11:29:42;;;;;;;4.15;0.28;;;;;;;11.15;100.00;99180.25;4986378;28;20034;-77
2023/10/26 11:32:22;;;;;;;2.47;0.40;;;;;;;11.44;100.00;99201.44;5011898;28;20511;-77
2023/10/26 11:35:07;;;;;;;1.00;0.13;;;;;;;11.51;100.00;99196.91;5001658;28;20251;-77
2023/10/26 11:37:37;;;;;;;2.00;0.90;;;;;;;11.46;100.00;99178.00;4922655;28;20051;-77
2023/10/26 11:40:04;;;;;;;0.20;0.17;;;;;;;11.04;100.00;99137.31;4950614;28;20031;-76
2023/10/26 11:42:49;;;;;;;1.63;0.40;;;;;;;11.34;100.00;99170.59;4961982;28;20067;-76
2023/10/26 11:45:16;;;;;;;2.17;0.20;;;;;;;10.95;100.00;99129.47;4920309;28;20127;-77
2023/10/26 11:47:52;;;;;;;0.70;0.20;;;;;;;10.88;100.00;99139.34;5012158;28;20022;-77
2023/10/26 11:50:21;;;;;;;;;;;;;;;11.13;100.00;99181.50;4999552;28;20041;-77
2023/10/26 11:52:47;;;;;;;5.93;0.55;;;;;;;11.07;100.00;99184.97;5026569;28;19913;-77
2023/10/26 11:55:15;;;;;;;1.58;0.75;;;;;;;11.08;100.00;99171.41;5011384;28;20450;-77
2023/10/26 11:57:41;;;;;;;0.95;0.50;;;;;;;11.15;100.00;99177.59;5006632;28;20042;-77
2023/10/26 12:00:08;;;;;;;1.98;0.57;;;;;;;10.95;100.00;99155.38;4975361;28;20034;-77
2023/10/26 12:02:38;;;;;;;4.53;0.40;;;;;;;11.01;100.00;99169.78;5010020;28;20040;-77
2023/10/26 12:05:04;;;;;;;0.77;0.20;;;;;;;10.75;100.00;99144.69;5009983;28;20128;-77
2023/10/26 12:07:30;;;;;;;0.68;0.43;;;;;;;10.84;100.00;99163.97;5010984;28;20092;-77
2023/10/26 12:09:55;;;;;;;;;;;;;;;10.74;100.00;99146.50;4968961;28;20069;-77
2023/10/26 12:12:21;;;;;;;0.85;0.30;;;;;;;11.09;100.00;99186.41;5026520;28;20540;-77
2023/10/26 12:14:47;;;;;;;0.30;0.30;;;;;;;11.19;100.00;99186.84;5009729;28;20045;-77
2023/10/26 12:17:13;;;;;;;1.08;0.32;;;;;;;11.17;100.00;99170.19;5008808;28;20494;-77
2023/10/26 12:19:38;;;;;;;3.05;0.65;;;;;;;10.89;100.00;99170.38;5025860;28;20033;-77
2023/10/26 12:22:03;;;;;;;2.67;0.52;;;;;;;11.04;100.00;99196.88;4953714;28;20051;-77
2023/10/26 12:24:29;;;;;;;3.00;0.60;;;;;;;10.84;100.00;99191.50;4922416;28;20025;-77
2023/10/26 12:26:58;;;;;;;2.50;1.40;;;;;;;10.87;100.00;99209.78;4917644;28;20045;-77
2023/10/26 12:29:23;;;;;;;1.02;0.73;;;;;;;10.92;100.00;99228.69;4922114;28;20382;-76
2023/10/26 12:31:49;;;;;;;2.00;1.35;;;;;;;10.87;100.00;99223.16;4932194;28;20046;-77
2023/10/26 12:34:15;;;;;;;0.47;0.43;;;;;;;10.88;100.00;99229.31;4964453;28;20437;-77
2023/10/26 12:36:40;;;;;;;2.57;1.27;;;;;;;10.92;100.00;99239.38;4959743;28;20036;-77
2023/10/26 12:39:05;;;;;;;0.30;0.30;;;;;;;10.52;100.00;99230.41;4943901;28;20077;-77
2023/10/26 12:41:31;;;;;;;0.10;0.10;;;;;;;10.59;100.00;99249.13;4918514;28;20036;-77
2023/10/26 12:43:56;;;;;;;1.13;0.40;;;;;;;10.67;100.00;99270.28;5001019;28;20499;-77
2023/10/26 12:46:22;;;;;;;0.80;0.80;;;;;;;10.52;100.00;99251.75;4994676;28;20028;-77
2023/10/26 12:48:48;;;;;;;3.13;1.17;;;;;;;10.54;100.00;99263.88;4916871;28;20036;-77
2023/10/26 12:51:14;;;;;;;2.08;0.85;;;;;;;10.35;100.00;99261.94;4987403;28;20083;-77